Flight Track Log - Related Links

Times and Time Zones

All times are in EDT time to prevent confusion due to time zone crossing. See the EGF2935 flight status page for this flight to view local times or setup timezone preferences in your user account.

Time Position Orientation Groundspeed Altitude Reporting Facility
EDT Latitude Longitude Course Direction KTS MPH feet Rate Location/Type
Tue 07:31:13 AM 43.1722 -89.4089 209° Southwest 213 245 4,100  Level Chicago Center
Tue 07:32:00 AM 42.8610 -89.5029 200° South  Level FlightAware Approximate
Tue 07:32:15 AM 43.1153 -89.4483 207° Southwest 223 257 6,000  Level Chicago Center
Tue 07:33:00 AM 42.7670 -89.5499 200° South  Level FlightAware Approximate
Tue 07:33:16 AM 43.0431 -89.4875 202° Southwest 265 305 8,400  Level Chicago Center
Tue 07:34:00 AM 42.6770 -89.6098 206° Southwest  Level FlightAware Approximate
Tue 07:34:18 AM 42.9725 -89.5317 205° Southwest 278 320 10,600  Level Chicago Center
Tue 07:35:00 AM 42.5858 -89.6655 200° South  Level FlightAware Approximate
Tue 07:35:19 AM 42.8919 -89.5772 203° Southwest 307 353 11,800  Level Chicago Center
Tue 07:36:00 AM 42.4895 -89.7204 209° Southwest  Level FlightAware Approximate
Tue 07:36:21 AM 42.7925 -89.6353 203° Southwest 331 381 13,400  Level Chicago Center
Tue 07:37:22 AM 42.7025 -89.6878 203° Southwest 347 399 14,900 1,512 Climbing Chicago Center
Tue 07:38:24 AM 42.6139 -89.7433 205° Southwest 350 403 16,500 1,463 Climbing Chicago Center
Tue 07:39:25 AM 42.5281 -89.8108 210° Southwest 354 407 17,900 1,415 Climbing Chicago Center
Tue 07:40:27 AM 42.4403 -89.8761 209° Southwest 358 412 19,400 1,500 Climbing Chicago Center
Tue 07:41:29 AM 42.3525 -89.9422 209° Southwest 362 417 21,000 1,512 Climbing Chicago Center
Tue 07:42:30 AM 42.2614 -90.0083 208° Southwest 371 427 22,500 1,512 Climbing Chicago Center
Tue 07:43:32 AM 42.1722 -90.0758 209° Southwest 371 427 24,100 1,645 Climbing Chicago Center
Tue 07:44:34 AM 42.0636 -90.1550 208° Southwest 372 428 25,900 1,463 Climbing Chicago Center
Tue 07:45:35 AM 41.9725 -90.2211 208° Southwest 373 429 27,100 1,122 Climbing Chicago Center
Tue 07:46:37 AM 41.8817 -90.2875 209° Southwest 374 430 28,200 1,016 Climbing Chicago Center
Tue 07:47:39 AM 41.7842 -90.3583 208° Southwest 387 445 29,200 1,024 Climbing Chicago Center
Tue 07:48:40 AM 41.6892 -90.4267 208° Southwest 388 447 30,300 1,024 Climbing Chicago Center
Tue 07:49:42 AM 41.5933 -90.4975 209° Southwest 393 452 31,300 1,016 Climbing Chicago Center
Tue 07:50:44 AM 41.4953 -90.5656 207° Southwest 397 457 32,400 1,024 Climbing Chicago Center
Tue 07:51:45 AM 41.3953 -90.6381 209° Southwest 405 466 33,400 1,073 Climbing Chicago Center
Tue 07:52:47 AM 41.2753 -90.7242 208° Southwest 409 471 34,600 1,113 Climbing Chicago Center
Tue 07:53:49 AM 41.1747 -90.7950 208° Southwest 410 472 35,700 677 Climbing Chicago Center
Tue 07:54:51 AM 41.0753 -90.8656 208° Southwest 408 470 36,000 146 Climbing Chicago Center
Tue 07:55:52 AM 40.9742 -90.9369 208° Southwest 413 475 36,000  Level Chicago Center
Tue 07:56:54 AM 40.8731 -91.0083 208° Southwest 413 475 36,000  Level Chicago Center
Tue 07:57:56 AM 40.7717 -91.0786 208° Southwest 414 476 36,000  Level Chicago Center
Tue 07:58:58 AM 40.6506 -91.1636 208° Southwest 413 475 36,000  Level Chicago Center
Tue 08:00:00 AM 40.5486 -91.2333 207° Southwest 415 478 36,000  Level Chicago Center
Tue 08:01:01 AM 40.4544 -91.2975 207° Southwest 419 482 36,000  Level Chicago Center
Tue 08:02:03 AM 40.3519 -91.3678 208° Southwest 418 481 36,000  Level Chicago Center
Tue 08:02:40 AM 40.2706 -91.4253 208° Southwest 417 480 36,000  Level Kansas City Center
Tue 08:03:41 AM 40.1669 -91.4953 207° Southwest 419 482 36,000  Level Kansas City Center
Tue 08:04:42 AM 40.0642 -91.5667 208° Southwest 419 482 36,000  Level Kansas City Center
Tue 08:05:44 AM 39.9578 -91.6389 207° Southwest 428 493 36,000  Level Kansas City Center
Tue 08:06:45 AM 39.8539 -91.7125 209° Southwest 427 491 36,000  Level Kansas City Center
Tue 08:07:46 AM 39.7492 -91.7867 209° Southwest 429 494 36,000  Level Kansas City Center
Tue 08:08:47 AM 39.6436 -91.8600 208° Southwest 430 495 36,000  Level Kansas City Center
Tue 08:09:48 AM 39.5389 -91.9336 208° Southwest 430 495 36,000  Level Kansas City Center
Tue 08:10:49 AM 39.4356 -92.0050 208° Southwest 425 489 36,000  Level Kansas City Center
Tue 08:11:51 AM 39.3125 -92.0906 208° Southwest 422 486 36,000  Level Kansas City Center
Tue 08:12:52 AM 39.2169 -92.1558 208° Southwest 423 487 36,000  Level Kansas City Center
Tue 08:13:53 AM 39.1133 -92.2278 208° Southwest 423 487 36,000  Level Kansas City Center
Tue 08:14:54 AM 39.0103 -92.2986 208° Southwest 420 483 36,000  Level Kansas City Center
Tue 08:15:56 AM 38.9075 -92.3725 209° Southwest 420 483 36,000  Level Kansas City Center
Tue 08:16:57 AM 38.7836 -92.4564 208° Southwest 419 482 36,000  Level Kansas City Center
Tue 08:17:58 AM 38.6822 -92.5258 208° Southwest 415 478 36,000  Level Kansas City Center
Tue 08:18:59 AM 38.5806 -92.5953 208° Southwest 414 476 36,000  Level Kansas City Center
Tue 08:20:01 AM 38.4800 -92.6633 208° Southwest 412 474 36,000  Level Kansas City Center
Tue 08:21:02 AM 38.3789 -92.7311 208° Southwest 411 473 36,000  Level Kansas City Center
Tue 08:22:03 AM 38.2772 -92.7992 208° Southwest 413 475 36,000  Level Kansas City Center
Tue 08:23:05 AM 38.1764 -92.8664 208° Southwest 411 473 36,000  Level Kansas City Center
Tue 08:24:06 AM 38.0761 -92.9336 208° Southwest 410 472 36,000  Level Kansas City Center
Tue 08:25:07 AM 37.9747 -93.0008 208° Southwest 412 474 36,000  Level Kansas City Center
Tue 08:26:09 AM 37.8542 -93.0803 207° Southwest 409 471 36,000  Level Kansas City Center
Tue 08:27:10 AM 37.7547 -93.1461 208° Southwest 405 466 36,000  Level Kansas City Center
Tue 08:28:11 AM 37.6533 -93.2128 208° Southwest 408 470 36,000  Level Kansas City Center
Tue 08:29:13 AM 37.5519 -93.2797 208° Southwest 410 472 36,000  Level Kansas City Center
Tue 08:30:14 AM 37.4497 -93.3483 208° Southwest 413 475 36,000  Level Kansas City Center
Tue 08:31:16 AM 37.3400 -93.4161 206° Southwest 431 496 36,000  Level Kansas City Center
Tue 08:32:17 AM 37.2347 -93.4889 209° Southwest 432 497 36,000  Level Kansas City Center
Tue 08:34:08 AM 37.0225 -93.6256 207° Southwest 433 498 36,000  Level Memphis Center
Tue 08:35:08 AM 36.9292 -93.6917 210° Southwest 421 484 36,000  Level Memphis Center
Tue 08:36:08 AM 36.8106 -93.7647 206° Southwest 427 491 36,000  Level Memphis Center
Tue 08:36:23 AM 36.7908 -93.7739 200° South 436 502 36,000  Level Kansas City Center
Tue 08:37:25 AM 36.6842 -93.8431 207° Southwest 435 501 36,000  Level Kansas City Center
Tue 08:38:26 AM 36.5769 -93.9131 208° Southwest 433 498 36,000  Level Kansas City Center
Tue 08:39:28 AM 36.4681 -93.9828 207° Southwest 434 499 36,000  Level Kansas City Center
Tue 08:40:30 AM 36.3383 -94.0625 206° Southwest 439 505 36,000  Level Kansas City Center
Tue 08:41:08 AM 36.2689 -94.1100 209° Southwest 439 505 36,000  Level Memphis Center
Tue 08:42:08 AM 36.1569 -94.1642 201° Southwest 439 505 36,000  Level Memphis Center
Tue 08:43:08 AM 36.0386 -94.2150 199° South 444 511 36,000  Level Memphis Center
Tue 08:44:08 AM 35.9222 -94.2686 200° South 444 511 36,000  Level Memphis Center
Tue 08:45:08 AM 35.8100 -94.3219 201° Southwest 444 511 36,000  Level Memphis Center
Tue 08:46:08 AM 35.6958 -94.3728 200° South 439 505 36,000  Level Memphis Center
Tue 08:47:08 AM 35.5836 -94.4236 200° South 439 505 36,000  Level Memphis Center
Tue 08:48:08 AM 35.4861 -94.4672 200° South 439 505 36,000  Level Memphis Center
Tue 08:49:08 AM 35.3739 -94.5178 200° South 433 498 36,000  Level Memphis Center
Tue 08:50:39 AM 35.2097 -94.5931 201° Southwest 431 496 36,000  Level Fort Worth Center
Tue 08:51:39 AM 35.0942 -94.6453 200° South 419 482 36,000  Level Fort Worth Center
Tue 08:52:39 AM 34.9931 -94.6992 204° Southwest 412 474 36,000  Level Fort Worth Center
Tue 08:53:39 AM 34.9094 -94.7906 222° Southwest 400 460 36,000  Level Fort Worth Center
Tue 08:54:39 AM 34.8342 -94.8761 223° Southwest 406 467 36,000 -200 Level Fort Worth Center
Tue 08:55:39 AM 34.7417 -94.9472 212° Southwest 406 467 35,600 -700 Descending Fort Worth Center
Tue 08:56:39 AM 34.6247 -94.9406 177° South 390 449 34,600 -1,150 Descending Fort Worth Center
Tue 08:57:39 AM 34.5097 -94.9211 172° South 402 463 33,300 -1,400 Descending Fort Worth Center
Tue 08:58:39 AM 34.3944 -94.9069 174° South 412 474 31,800 -1,500 Descending Fort Worth Center
Tue 08:59:39 AM 34.2875 -94.9853 211° Southwest 412 474 30,300 -1,500 Descending Fort Worth Center
Tue 09:00:39 AM 34.2208 -95.1003 235° Southwest 400 460 28,800 -1,500 Descending Fort Worth Center
Tue 09:01:39 AM 34.1564 -95.2175 236° Southwest 407 468 27,300 -1,500 Descending Fort Worth Center
Tue 09:02:39 AM 34.0831 -95.3372 234° Southwest 427 491 25,800 -1,500 Descending Fort Worth Center
Tue 09:03:39 AM 34.0119 -95.4542 234° Southwest 442 509 24,300 -950 Descending Fort Worth Center
Tue 09:04:39 AM 33.9408 -95.5708 234° Southwest 442 509 23,900 -1,050 Descending Fort Worth Center
Tue 09:05:39 AM 33.8714 -95.6850 234° Southwest 442 509 22,200 -1,800 Descending Fort Worth Center
Tue 09:06:39 AM 33.8061 -95.7961 235° Southwest 429 494 20,300 -1,900 Descending Fort Worth Center
Tue 09:07:39 AM 33.7364 -95.9047 232° Southwest 424 488 18,400 -1,950 Descending Fort Worth Center
Tue 09:08:39 AM 33.6669 -96.0233 235° Southwest 411 473 16,400 -1,850 Descending Fort Worth Center
Tue 09:09:39 AM 33.6117 -96.1139 234° Southwest 392 451 14,700 -1,800 Descending Fort Worth Center
Tue 09:10:39 AM 33.5458 -96.2247 235° Southwest 386 444 12,800 -1,550 Descending Fort Worth Center
Tue 09:11:39 AM 33.4819 -96.3028 226° Southwest 373 429 11,600 -900 Descending Fort Worth Center
Tue 09:12:39 AM 33.4094 -96.3881 224° Southwest 345 397 11,000 -300 Descending Fort Worth Center
Tue 09:13:39 AM 33.3578 -96.4508 225° Southwest 306 352 11,000 -400 Level Fort Worth Center
Tue 09:14:39 AM 33.2958 -96.5311 227° Southwest 301 346 10,200 -950 Descending Fort Worth Center
Tue 09:15:39 AM 33.2672 -96.6183 249° West 291 335 9,100 -1,000 Descending Fort Worth Center
Tue 09:16:39 AM 33.2425 -96.6981 250° West 286 329 8,200 -950 Descending Fort Worth Center
Tue 09:17:39 AM 33.2075 -96.7903 246° West 286 329 7,200 -950 Descending Fort Worth Center
Tue 09:18:39 AM 33.1619 -96.8525 229° Southwest 281 323 6,300 -900 Descending Fort Worth Center

Login

Don't have an account? Register now (free) for customized features, flight alerts, and more!